Terminal Aerodrome Forecast
Issued by NWS

Home | Current Version | Previous Version | Graphics & Text | Print | Product List | Glossary On
Versions: 1 2 3 4 5 6 7 8 9 10 11 12 13 14 15 16 17 18 19 20 21
000
FTUS43 KICT 280950 AAB
TAFHUT
TAF AMD
KHUT 280950Z 2810/2906 VRB05KT P6SM BKN250
     FM281200 15008KT P6SM VCSH BKN035
     FM281600 18015G22KT P6SM BKN120
     FM290300 18010KT P6SM BKN025=

USA.gov is the U.S. government's official web portal to all federal, state and local government web resources and services.